sensor_id;sensor_type;location;lat;lon;timestamp;temperature;humidity
14016;DHT22;7083;48.854;9.158;2023-04-01T00:01:57;7.80;99.90
14016;DHT22;7083;48.854;9.158;2023-04-01T00:05:58;8.80;99.90
14016;DHT22;7083;48.854;9.158;2023-04-01T00:08:31;7.80;99.90
14016;DHT22;7083;48.854;9.158;2023-04-01T00:11:49;7.90;99.90
14016;DHT22;7083;48.854;9.158;2023-04-01T00:17:42;7.70;99.90
14016;DHT22;7083;48.854;9.158;2023-04-01T00:23:08;7.90;99.90
14016;DHT22;7083;48.854;9.158;2023-04-01T00:25:43;7.90;99.90
14016;DHT22;7083;48.854;9.158;2023-04-01T00:28:10;8.00;99.90
14016;DHT22;7083;48.854;9.158;2023-04-01T00:30:40;8.00;99.90
14016;DHT22;7083;48.854;9.158;2023-04-01T00:33:11;8.30;99.90
14016;DHT22;7083;48.854;9.158;2023-04-01T00:35:38;8.20;99.90
14016;DHT22;7083;48.854;9.158;2023-04-01T00:38:07;8.00;99.90
14016;DHT22;7083;48.854;9.158;2023-04-01T00:40:35;8.20;99.90
14016;DHT22;7083;48.854;9.158;2023-04-01T00:43:03;8.90;99.90
14016;DHT22;7083;48.854;9.158;2023-04-01T00:45:34;10.40;99.90
14016;DHT22;7083;48.854;9.158;2023-04-01T00:48:04;8.30;99.90
14016;DHT22;7083;48.854;9.158;2023-04-01T00:50:37;8.00;99.90
14016;DHT22;7083;48.854;9.158;2023-04-01T00:53:10;8.30;99.90
14016;DHT22;7083;48.854;9.158;2023-04-01T00:55:41;7.80;99.90
14016;DHT22;7083;48.854;9.158;2023-04-01T00:58:14;8.80;99.90
14016;DHT22;7083;48.854;9.158;2023-04-01T01:00:42;8.90;99.90
14016;DHT22;7083;48.854;9.158;2023-04-01T01:03:11;9.30;99.90
14016;DHT22;7083;48.854;9.158;2023-04-01T01:05:51;8.40;99.90
14016;DHT22;7083;48.854;9.158;2023-04-01T01:08:29;9.00;99.90
14016;DHT22;7083;48.854;9.158;2023-04-01T01:10:58;8.20;99.90
14016;DHT22;7083;48.854;9.158;2023-04-01T01:13:30;9.10;99.90
14016;DHT22;7083;48.854;9.158;2023-04-01T01:16:05;8.20;99.90
14016;DHT22;7083;48.854;9.158;2023-04-01T01:18:35;9.00;99.90
14016;DHT22;7083;48.854;9.158;2023-04-01T01:21:29;8.20;99.90
14016;DHT22;7083;48.854;9.158;2023-04-01T01:24:13;8.30;99.90
14016;DHT22;7083;48.854;9.158;2023-04-01T01:27:06;9.70;99.90
14016;DHT22;7083;48.854;9.158;2023-04-01T01:30:10;8.20;99.90
14016;DHT22;7083;48.854;9.158;2023-04-01T01:33:13;8.20;99.90
14016;DHT22;7083;48.854;9.158;2023-04-01T01:35:59;8.20;99.90
14016;DHT22;7083;48.854;9.158;2023-04-01T01:38:45;8.20;99.90
14016;DHT22;7083;48.854;9.158;2023-04-01T01:41:15;8.20;99.90
14016;DHT22;7083;48.854;9.158;2023-04-01T01:43:48;10.20;99.90
14016;DHT22;7083;48.854;9.158;2023-04-01T01:49:43;9.50;99.90
14016;DHT22;7083;48.854;9.158;2023-04-01T01:52:12;8.00;99.90
14016;DHT22;7083;48.854;9.158;2023-04-01T01:54:50;8.40;99.90
14016;DHT22;7083;48.854;9.158;2023-04-01T01:57:33;9.20;99.90
14016;DHT22;7083;48.854;9.158;2023-04-01T02:00:04;8.20;99.90
14016;DHT22;7083;48.854;9.158;2023-04-01T02:02:48;8.20;99.90
14016;DHT22;7083;48.854;9.158;2023-04-01T02:05:17;8.50;99.90
14016;DHT22;7083;48.854;9.158;2023-04-01T02:07:49;8.30;99.90
14016;DHT22;7083;48.854;9.158;2023-04-01T02:10:20;8.40;99.90
14016;DHT22;7083;48.854;9.158;2023-04-01T02:12:49;8.20;99.90
14016;DHT22;7083;48.854;9.158;2023-04-01T02:15:18;8.20;99.90
14016;DHT22;7083;48.854;9.158;2023-04-01T02:17:47;8.20;99.90
14016;DHT22;7083;48.854;9.158;2023-04-01T02:20:18;8.20;99.90
14016;DHT22;7083;48.854;9.158;2023-04-01T02:22:49;8.20;99.90
14016;DHT22;7083;48.854;9.158;2023-04-01T02:25:18;8.20;99.90
14016;DHT22;7083;48.854;9.158;2023-04-01T02:27:47;8.20;99.90
14016;DHT22;7083;48.854;9.158;2023-04-01T02:30:24;8.20;99.90
14016;DHT22;7083;48.854;9.158;2023-04-01T02:32:53;8.20;99.90
14016;DHT22;7083;48.854;9.158;2023-04-01T02:35:21;9.40;99.90
14016;DHT22;7083;48.854;9.158;2023-04-01T02:37:50;8.10;99.90
14016;DHT22;7083;48.854;9.158;2023-04-01T02:40:18;10.40;99.90
14016;DHT22;7083;48.854;9.158;2023-04-01T02:42:45;8.00;99.90
14016;DHT22;7083;48.854;9.158;2023-04-01T02:45:13;8.00;99.90
14016;DHT22;7083;48.854;9.158;2023-04-01T02:47:40;8.80;99.90
14016;DHT22;7083;48.854;9.158;2023-04-01T02:50:07;8.00;99.90
14016;DHT22;7083;48.854;9.158;2023-04-01T02:52:35;8.00;99.90
14016;DHT22;7083;48.854;9.158;2023-04-01T02:55:04;7.90;99.90
14016;DHT22;7083;48.854;9.158;2023-04-01T02:57:31;8.00;99.90
14016;DHT22;7083;48.854;9.158;2023-04-01T02:59:58;7.90;99.90
14016;DHT22;7083;48.854;9.158;2023-04-01T03:02:24;7.90;99.90
14016;DHT22;7083;48.854;9.158;2023-04-01T03:04:52;8.00;99.90
14016;DHT22;7083;48.854;9.158;2023-04-01T03:07:19;7.90;99.90
14016;DHT22;7083;48.854;9.158;2023-04-01T03:09:45;8.00;99.90
14016;DHT22;7083;48.854;9.158;2023-04-01T03:12:13;10.10;99.90
14016;DHT22;7083;48.854;9.158;2023-04-01T03:14:40;8.00;99.90
14016;DHT22;7083;48.854;9.158;2023-04-01T03:17:07;8.00;99.90
14016;DHT22;7083;48.854;9.158;2023-04-01T03:19:36;8.00;99.90
14016;DHT22;7083;48.854;9.158;2023-04-01T03:22:03;8.10;99.90
14016;DHT22;7083;48.854;9.158;2023-04-01T03:24:29;9.40;99.90
14016;DHT22;7083;48.854;9.158;2023-04-01T03:26:56;8.20;99.90
14016;DHT22;7083;48.854;9.158;2023-04-01T03:29:24;8.00;99.90
14016;DHT22;7083;48.854;9.158;2023-04-01T03:31:52;8.00;99.90
14016;DHT22;7083;48.854;9.158;2023-04-01T03:34:18;7.90;99.90
14016;DHT22;7083;48.854;9.158;2023-04-01T03:36:48;7.80;99.90
14016;DHT22;7083;48.854;9.158;2023-04-01T03:39:16;7.80;99.90
14016;DHT22;7083;48.854;9.158;2023-04-01T03:41:44;7.70;99.90
14016;DHT22;7083;48.854;9.158;2023-04-01T03:44:11;7.70;99.90
14016;DHT22;7083;48.854;9.158;2023-04-01T03:46:39;7.70;99.90
14016;DHT22;7083;48.854;9.158;2023-04-01T03:49:06;7.70;99.90
14016;DHT22;7083;48.854;9.158;2023-04-01T03:51:36;7.70;99.90
14016;DHT22;7083;48.854;9.158;2023-04-01T03:54:03;7.70;99.90
14016;DHT22;7083;48.854;9.158;2023-04-01T03:56:30;8.10;99.90
14016;DHT22;7083;48.854;9.158;2023-04-01T03:58:56;7.60;99.90
14016;DHT22;7083;48.854;9.158;2023-04-01T04:01:23;7.60;99.90
14016;DHT22;7083;48.854;9.158;2023-04-01T04:03:51;7.60;99.90
14016;DHT22;7083;48.854;9.158;2023-04-01T04:06:19;7.60;99.90
14016;DHT22;7083;48.854;9.158;2023-04-01T04:08:46;7.60;99.90
14016;DHT22;7083;48.854;9.158;2023-04-01T04:11:12;7.60;99.90
14016;DHT22;7083;48.854;9.158;2023-04-01T04:13:40;7.60;99.90
14016;DHT22;7083;48.854;9.158;2023-04-01T04:16:08;7.60;99.90
14016;DHT22;7083;48.854;9.158;2023-04-01T04:18:35;7.60;99.90
14016;DHT22;7083;48.854;9.158;2023-04-01T04:21:04;7.60;99.90
14016;DHT22;7083;48.854;9.158;2023-04-01T04:23:31;7.70;99.90
14016;DHT22;7083;48.854;9.158;2023-04-01T04:26:00;7.70;99.90
14016;DHT22;7083;48.854;9.158;2023-04-01T04:28:27;7.80;99.90
14016;DHT22;7083;48.854;9.158;2023-04-01T04:30:54;7.80;99.90
14016;DHT22;7083;48.854;9.158;2023-04-01T04:33:22;7.80;99.90
14016;DHT22;7083;48.854;9.158;2023-04-01T04:35:49;7.70;99.90
14016;DHT22;7083;48.854;9.158;2023-04-01T04:38:17;7.70;99.90
14016;DHT22;7083;48.854;9.158;2023-04-01T04:40:44;7.70;99.90
14016;DHT22;7083;48.854;9.158;2023-04-01T04:43:11;7.80;99.90
14016;DHT22;7083;48.854;9.158;2023-04-01T04:45:38;7.80;99.90
14016;DHT22;7083;48.854;9.158;2023-04-01T04:48:07;7.80;99.90
14016;DHT22;7083;48.854;9.158;2023-04-01T04:50:34;8.00;99.90
14016;DHT22;7083;48.854;9.158;2023-04-01T04:53:01;7.80;99.90
14016;DHT22;7083;48.854;9.158;2023-04-01T04:55:29;7.80;99.90
14016;DHT22;7083;48.854;9.158;2023-04-01T04:57:56;7.80;99.90
14016;DHT22;7083;48.854;9.158;2023-04-01T05:00:23;7.80;99.90
14016;DHT22;7083;48.854;9.158;2023-04-01T05:02:49;8.60;99.90
14016;DHT22;7083;48.854;9.158;2023-04-01T05:05:16;7.70;99.90
14016;DHT22;7083;48.854;9.158;2023-04-01T05:07:43;9.60;99.90
14016;DHT22;7083;48.854;9.158;2023-04-01T05:10:10;7.70;99.90
14016;DHT22;7083;48.854;9.158;2023-04-01T05:12:38;7.80;99.90
14016;DHT22;7083;48.854;9.158;2023-04-01T05:15:07;7.90;99.90
14016;DHT22;7083;48.854;9.158;2023-04-01T05:17:37;7.80;99.90
14016;DHT22;7083;48.854;9.158;2023-04-01T05:20:04;7.80;99.90
14016;DHT22;7083;48.854;9.158;2023-04-01T05:22:36;7.70;99.90
14016;DHT22;7083;48.854;9.158;2023-04-01T05:25:06;7.70;99.90
14016;DHT22;7083;48.854;9.158;2023-04-01T05:27:33;7.70;99.90
14016;DHT22;7083;48.854;9.158;2023-04-01T05:30:06;7.60;99.90
14016;DHT22;7083;48.854;9.158;2023-04-01T05:32:35;7.60;99.90
14016;DHT22;7083;48.854;9.158;2023-04-01T05:35:06;7.70;99.90
14016;DHT22;7083;48.854;9.158;2023-04-01T05:40:05;7.80;99.90
14016;DHT22;7083;48.854;9.158;2023-04-01T05:42:31;7.80;99.90
14016;DHT22;7083;48.854;9.158;2023-04-01T05:44:58;7.90;99.90
14016;DHT22;7083;48.854;9.158;2023-04-01T05:47:26;7.90;99.90
14016;DHT22;7083;48.854;9.158;2023-04-01T05:49:53;7.90;99.90
14016;DHT22;7083;48.854;9.158;2023-04-01T05:52:20;8.00;99.90
14016;DHT22;7083;48.854;9.158;2023-04-01T05:54:47;8.20;99.90
14016;DHT22;7083;48.854;9.158;2023-04-01T05:57:14;8.20;99.90
14016;DHT22;7083;48.854;9.158;2023-04-01T05:59:41;8.30;99.90
14016;DHT22;7083;48.854;9.158;2023-04-01T06:02:08;8.30;99.90
14016;DHT22;7083;48.854;9.158;2023-04-01T06:04:38;8.40;99.90
14016;DHT22;7083;48.854;9.158;2023-04-01T06:07:11;8.50;99.90
14016;DHT22;7083;48.854;9.158;2023-04-01T06:09:38;8.50;99.90
14016;DHT22;7083;48.854;9.158;2023-04-01T06:12:31;8.70;99.90
14016;DHT22;7083;48.854;9.158;2023-04-01T06:15:19;8.80;99.90
14016;DHT22;7083;48.854;9.158;2023-04-01T06:18:04;8.80;99.90
14016;DHT22;7083;48.854;9.158;2023-04-01T06:20:43;8.90;99.90
14016;DHT22;7083;48.854;9.158;2023-04-01T06:26:15;8.90;99.90
14016;DHT22;7083;48.854;9.158;2023-04-01T06:29:10;9.00;99.90
14016;DHT22;7083;48.854;9.158;2023-04-01T06:31:50;9.00;99.90
14016;DHT22;7083;48.854;9.158;2023-04-01T06:34:40;9.10;99.90
14016;DHT22;7083;48.854;9.158;2023-04-01T06:37:23;9.20;99.90
14016;DHT22;7083;48.854;9.158;2023-04-01T06:40:05;9.30;99.90
14016;DHT22;7083;48.854;9.158;2023-04-01T06:42:46;9.40;99.90
14016;DHT22;7083;48.854;9.158;2023-04-01T06:45:25;9.40;99.90
14016;DHT22;7083;48.854;9.158;2023-04-01T06:48:05;9.50;99.90
14016;DHT22;7083;48.854;9.158;2023-04-01T06:50:40;9.50;99.90
14016;DHT22;7083;48.854;9.158;2023-04-01T06:53:19;9.60;99.90
14016;DHT22;7083;48.854;9.158;2023-04-01T06:55:49;9.60;99.90
14016;DHT22;7083;48.854;9.158;2023-04-01T06:58:21;9.70;99.90
14016;DHT22;7083;48.854;9.158;2023-04-01T07:00:50;9.70;99.90
14016;DHT22;7083;48.854;9.158;2023-04-01T07:03:21;9.80;99.90
14016;DHT22;7083;48.854;9.158;2023-04-01T07:05:49;9.70;99.90
14016;DHT22;7083;48.854;9.158;2023-04-01T07:08:21;9.80;99.90
14016;DHT22;7083;48.854;9.158;2023-04-01T07:10:52;9.80;99.90
14016;DHT22;7083;48.854;9.158;2023-04-01T07:13:26;9.90;99.90
14016;DHT22;7083;48.854;9.158;2023-04-01T07:15:58;9.90;99.90
14016;DHT22;7083;48.854;9.158;2023-04-01T07:18:32;9.90;99.90
14016;DHT22;7083;48.854;9.158;2023-04-01T07:21:01;9.90;99.90
14016;DHT22;7083;48.854;9.158;2023-04-01T07:23:33;10.00;99.90
14016;DHT22;7083;48.854;9.158;2023-04-01T07:26:15;9.90;99.90
14016;DHT22;7083;48.854;9.158;2023-04-01T07:28:42;11.80;99.90
14016;DHT22;7083;48.854;9.158;2023-04-01T07:31:16;9.90;99.90
14016;DHT22;7083;48.854;9.158;2023-04-01T07:33:53;11.50;99.90
14016;DHT22;7083;48.854;9.158;2023-04-01T07:36:24;9.90;99.90
14016;DHT22;7083;48.854;9.158;2023-04-01T07:39:01;9.90;99.90
14016;DHT22;7083;48.854;9.158;2023-04-01T07:41:36;9.90;99.90
14016;DHT22;7083;48.854;9.158;2023-04-01T07:44:13;9.90;99.90
14016;DHT22;7083;48.854;9.158;2023-04-01T07:46:56;10.00;99.90
14016;DHT22;7083;48.854;9.158;2023-04-01T07:49:30;10.00;99.90
14016;DHT22;7083;48.854;9.158;2023-04-01T07:52:01;11.30;99.90
14016;DHT22;7083;48.854;9.158;2023-04-01T07:54:39;10.20;99.90
14016;DHT22;7083;48.854;9.158;2023-04-01T07:57:12;10.30;99.90
14016;DHT22;7083;48.854;9.158;2023-04-01T07:59:48;10.30;99.90
14016;DHT22;7083;48.854;9.158;2023-04-01T08:02:28;10.40;99.90
14016;DHT22;7083;48.854;9.158;2023-04-01T08:05:03;10.50;99.90
14016;DHT22;7083;48.854;9.158;2023-04-01T08:07:38;10.70;99.90
14016;DHT22;7083;48.854;9.158;2023-04-01T08:10:13;10.70;99.90
14016;DHT22;7083;48.854;9.158;2023-04-01T08:12:48;10.70;99.90
14016;DHT22;7083;48.854;9.158;2023-04-01T08:15:23;10.80;99.90
14016;DHT22;7083;48.854;9.158;2023-04-01T08:18:07;10.90;99.60
14016;DHT22;7083;48.854;9.158;2023-04-01T08:20:40;11.00;99.60
14016;DHT22;7083;48.854;9.158;2023-04-01T08:23:13;10.90;99.50
14016;DHT22;7083;48.854;9.158;2023-04-01T08:25:46;10.80;99.70
14016;DHT22;7083;48.854;9.158;2023-04-01T08:28:19;10.70;99.30
14016;DHT22;7083;48.854;9.158;2023-04-01T08:30:52;10.70;99.90
14016;DHT22;7083;48.854;9.158;2023-04-01T08:33:24;10.70;99.90
14016;DHT22;7083;48.854;9.158;2023-04-01T08:35:56;10.80;99.90
14016;DHT22;7083;48.854;9.158;2023-04-01T08:38:28;10.70;99.90
14016;DHT22;7083;48.854;9.158;2023-04-01T08:40:58;10.70;99.90
14016;DHT22;7083;48.854;9.158;2023-04-01T08:43:51;10.60;99.90
14016;DHT22;7083;48.854;9.158;2023-04-01T08:46:46;10.20;99.90
14016;DHT22;7083;48.854;9.158;2023-04-01T08:49:30;9.90;99.90
14016;DHT22;7083;48.854;9.158;2023-04-01T08:52:22;9.80;99.90
14016;DHT22;7083;48.854;9.158;2023-04-01T08:55:25;9.60;99.90
14016;DHT22;7083;48.854;9.158;2023-04-01T08:58:20;9.50;99.90
14016;DHT22;7083;48.854;9.158;2023-04-01T09:00:53;9.30;99.90
14016;DHT22;7083;48.854;9.158;2023-04-01T09:03:37;9.70;99.90
14016;DHT22;7083;48.854;9.158;2023-04-01T09:06:28;9.30;99.90
14016;DHT22;7083;48.854;9.158;2023-04-01T09:09:26;9.30;99.90
14016;DHT22;7083;48.854;9.158;2023-04-01T09:12:18;9.30;99.90
14016;DHT22;7083;48.854;9.158;2023-04-01T09:15:15;9.30;99.90
14016;DHT22;7083;48.854;9.158;2023-04-01T09:17:56;9.40;99.90
14016;DHT22;7083;48.854;9.158;2023-04-01T09:23:36;9.80;99.90
14016;DHT22;7083;48.854;9.158;2023-04-01T09:26:18;9.90;99.90
14016;DHT22;7083;48.854;9.158;2023-04-01T09:28:54;10.20;99.90
14016;DHT22;7083;48.854;9.158;2023-04-01T09:31:42;10.50;99.90
14016;DHT22;7083;48.854;9.158;2023-04-01T09:34:25;10.70;99.90
14016;DHT22;7083;48.854;9.158;2023-04-01T09:37:14;10.90;99.90
14016;DHT22;7083;48.854;9.158;2023-04-01T09:39:51;10.80;99.90
14016;DHT22;7083;48.854;9.158;2023-04-01T09:42:42;10.80;99.90
14016;DHT22;7083;48.854;9.158;2023-04-01T09:45:37;10.70;99.90
14016;DHT22;7083;48.854;9.158;2023-04-01T09:48:22;10.60;99.90
14016;DHT22;7083;48.854;9.158;2023-04-01T09:51:00;10.50;99.90
14016;DHT22;7083;48.854;9.158;2023-04-01T09:53:39;10.40;99.90
14016;DHT22;7083;48.854;9.158;2023-04-01T09:56:29;10.40;99.90
14016;DHT22;7083;48.854;9.158;2023-04-01T09:59:31;10.40;99.90
14016;DHT22;7083;48.854;9.158;2023-04-01T10:05:35;10.60;99.90
14016;DHT22;7083;48.854;9.158;2023-04-01T10:09:02;10.60;99.90
14016;DHT22;7083;48.854;9.158;2023-04-01T10:11:58;10.70;99.80
14016;DHT22;7083;48.854;9.158;2023-04-01T10:18:07;10.90;99.30
14016;DHT22;7083;48.854;9.158;2023-04-01T10:20:52;11.00;98.30
14016;DHT22;7083;48.854;9.158;2023-04-01T10:23:27;11.30;97.80
14016;DHT22;7083;48.854;9.158;2023-04-01T10:29:26;11.50;97.10
14016;DHT22;7083;48.854;9.158;2023-04-01T10:35:29;11.60;96.50
14016;DHT22;7083;48.854;9.158;2023-04-01T10:47:26;11.20;97.30
14016;DHT22;7083;48.854;9.158;2023-04-01T10:50:27;10.90;97.30
14016;DHT22;7083;48.854;9.158;2023-04-01T10:53:20;11.00;98.00
14016;DHT22;7083;48.854;9.158;2023-04-01T10:56:14;11.00;96.70
14016;DHT22;7083;48.854;9.158;2023-04-01T11:08:37;11.10;96.10
14016;DHT22;7083;48.854;9.158;2023-04-01T11:14:50;11.30;96.90
14016;DHT22;7083;48.854;9.158;2023-04-01T11:17:41;11.30;95.80
14016;DHT22;7083;48.854;9.158;2023-04-01T11:20:33;11.40;95.60
14016;DHT22;7083;48.854;9.158;2023-04-01T11:23:29;11.50;95.40
14016;DHT22;7083;48.854;9.158;2023-04-01T11:26:08;11.70;94.80
14016;DHT22;7083;48.854;9.158;2023-04-01T11:29:12;11.80;94.40
14016;DHT22;7083;48.854;9.158;2023-04-01T11:31:55;11.90;94.20
14016;DHT22;7083;48.854;9.158;2023-04-01T11:34:42;11.90;94.00
14016;DHT22;7083;48.854;9.158;2023-04-01T11:37:19;13.30;94.30
14016;DHT22;7083;48.854;9.158;2023-04-01T11:39:57;12.10;93.90
14016;DHT22;7083;48.854;9.158;2023-04-01T11:42:32;12.60;93.70
14016;DHT22;7083;48.854;9.158;2023-04-01T11:45:12;12.60;93.40
14016;DHT22;7083;48.854;9.158;2023-04-01T11:51:03;12.60;92.60
14016;DHT22;7083;48.854;9.158;2023-04-01T11:53:40;12.70;92.80
14016;DHT22;7083;48.854;9.158;2023-04-01T11:56:30;12.80;92.10
14016;DHT22;7083;48.854;9.158;2023-04-01T11:59:47;12.70;92.60
14016;DHT22;7083;48.854;9.158;2023-04-01T12:02:25;12.50;93.00
14016;DHT22;7083;48.854;9.158;2023-04-01T12:05:24;12.50;93.20
14016;DHT22;7083;48.854;9.158;2023-04-01T12:08:02;12.40;93.00
14016;DHT22;7083;48.854;9.158;2023-04-01T12:10:38;12.40;92.70
14016;DHT22;7083;48.854;9.158;2023-04-01T12:13:20;12.30;92.50
14016;DHT22;7083;48.854;9.158;2023-04-01T12:16:03;12.40;92.80
14016;DHT22;7083;48.854;9.158;2023-04-01T12:18:39;12.40;92.90
14016;DHT22;7083;48.854;9.158;2023-04-01T12:21:15;12.60;92.40
14016;DHT22;7083;48.854;9.158;2023-04-01T12:24:04;12.60;92.20
14016;DHT22;7083;48.854;9.158;2023-04-01T12:26:43;12.70;92.90
14016;DHT22;7083;48.854;9.158;2023-04-01T12:29:40;12.70;93.10
14016;DHT22;7083;48.854;9.158;2023-04-01T12:32:18;12.70;92.50
14016;DHT22;7083;48.854;9.158;2023-04-01T12:35:13;12.70;92.60
14016;DHT22;7083;48.854;9.158;2023-04-01T12:37:49;12.60;92.60
14016;DHT22;7083;48.854;9.158;2023-04-01T12:40:29;12.40;92.40
14016;DHT22;7083;48.854;9.158;2023-04-01T12:43:05;12.30;93.00
14016;DHT22;7083;48.854;9.158;2023-04-01T12:45:41;12.40;92.70
14016;DHT22;7083;48.854;9.158;2023-04-01T12:48:33;12.40;92.60
14016;DHT22;7083;48.854;9.158;2023-04-01T12:51:29;12.50;92.50
14016;DHT22;7083;48.854;9.158;2023-04-01T12:54:20;12.40;92.00
14016;DHT22;7083;48.854;9.158;2023-04-01T12:57:03;12.40;91.90
14016;DHT22;7083;48.854;9.158;2023-04-01T12:59:47;12.50;91.90
14016;DHT22;7083;48.854;9.158;2023-04-01T13:02:25;12.40;91.20
14016;DHT22;7083;48.854;9.158;2023-04-01T13:05:14;12.40;91.00
14016;DHT22;7083;48.854;9.158;2023-04-01T13:07:58;12.50;91.10
14016;DHT22;7083;48.854;9.158;2023-04-01T13:10:36;12.50;91.60
14016;DHT22;7083;48.854;9.158;2023-04-01T13:13:22;12.40;91.20
14016;DHT22;7083;48.854;9.158;2023-04-01T13:15:58;12.20;91.70
14016;DHT22;7083;48.854;9.158;2023-04-01T13:18:35;12.10;91.70
14016;DHT22;7083;48.854;9.158;2023-04-01T13:21:12;12.00;92.00
14016;DHT22;7083;48.854;9.158;2023-04-01T13:23:52;11.80;92.30
14016;DHT22;7083;48.854;9.158;2023-04-01T13:26:26;11.70;92.80
14016;DHT22;7083;48.854;9.158;2023-04-01T13:29:00;11.80;92.70
14016;DHT22;7083;48.854;9.158;2023-04-01T13:31:49;11.90;92.80
14016;DHT22;7083;48.854;9.158;2023-04-01T13:34:32;11.90;93.10
14016;DHT22;7083;48.854;9.158;2023-04-01T13:37:15;12.10;92.80
14016;DHT22;7083;48.854;9.158;2023-04-01T13:39:54;12.10;92.90
14016;DHT22;7083;48.854;9.158;2023-04-01T13:42:25;12.10;92.90
14016;DHT22;7083;48.854;9.158;2023-04-01T13:44:59;12.20;92.60
14016;DHT22;7083;48.854;9.158;2023-04-01T13:47:56;12.90;93.00
14016;DHT22;7083;48.854;9.158;2023-04-01T13:50:46;12.10;93.10
14016;DHT22;7083;48.854;9.158;2023-04-01T13:53:29;12.10;92.60
14016;DHT22;7083;48.854;9.158;2023-04-01T13:56:17;12.10;93.00
14016;DHT22;7083;48.854;9.158;2023-04-01T14:01:52;11.80;93.60
14016;DHT22;7083;48.854;9.158;2023-04-01T14:04:39;11.70;93.90
14016;DHT22;7083;48.854;9.158;2023-04-01T14:07:26;11.60;93.80
14016;DHT22;7083;48.854;9.158;2023-04-01T14:10:10;11.50;94.50
14016;DHT22;7083;48.854;9.158;2023-04-01T14:12:44;11.70;94.20
14016;DHT22;7083;48.854;9.158;2023-04-01T14:15:49;11.80;93.10
14016;DHT22;7083;48.854;9.158;2023-04-01T14:21:27;11.80;94.00
14016;DHT22;7083;48.854;9.158;2023-04-01T14:27:25;11.70;94.60
14016;DHT22;7083;48.854;9.158;2023-04-01T14:32:54;11.30;95.70
14016;DHT22;7083;48.854;9.158;2023-04-01T14:35:32;11.10;96.80
14016;DHT22;7083;48.854;9.158;2023-04-01T14:38:12;10.80;97.50
14016;DHT22;7083;48.854;9.158;2023-04-01T14:41:06;10.60;98.90
14016;DHT22;7083;48.854;9.158;2023-04-01T14:44:05;10.50;99.60
14016;DHT22;7083;48.854;9.158;2023-04-01T14:49:47;10.30;99.90
14016;DHT22;7083;48.854;9.158;2023-04-01T14:52:21;10.30;99.90
14016;DHT22;7083;48.854;9.158;2023-04-01T14:54:50;10.30;99.90
14016;DHT22;7083;48.854;9.158;2023-04-01T14:57:23;10.20;99.90
14016;DHT22;7083;48.854;9.158;2023-04-01T14:59:58;10.20;99.90
14016;DHT22;7083;48.854;9.158;2023-04-01T15:02:40;10.30;99.90
14016;DHT22;7083;48.854;9.158;2023-04-01T15:05:27;10.30;99.90
14016;DHT22;7083;48.854;9.158;2023-04-01T15:08:12;10.40;99.90
14016;DHT22;7083;48.854;9.158;2023-04-01T15:11:17;10.50;99.90
14016;DHT22;7083;48.854;9.158;2023-04-01T15:14:02;10.60;99.90
14016;DHT22;7083;48.854;9.158;2023-04-01T15:16:39;10.70;99.90
14016;DHT22;7083;48.854;9.158;2023-04-01T15:19:16;10.80;99.90
14016;DHT22;7083;48.854;9.158;2023-04-01T15:22:06;10.90;99.90
14016;DHT22;7083;48.854;9.158;2023-04-01T15:24:46;11.80;99.90
14016;DHT22;7083;48.854;9.158;2023-04-01T15:27:25;11.10;99.90
14016;DHT22;7083;48.854;9.158;2023-04-01T15:30:21;11.40;99.90
14016;DHT22;7083;48.854;9.158;2023-04-01T15:35:47;11.10;99.90
14016;DHT22;7083;48.854;9.158;2023-04-01T15:38:30;11.20;99.90
14016;DHT22;7083;48.854;9.158;2023-04-01T15:41:07;11.30;99.30
14016;DHT22;7083;48.854;9.158;2023-04-01T15:43:41;11.20;99.10
14016;DHT22;7083;48.854;9.158;2023-04-01T15:49:09;11.20;98.80
14016;DHT22;7083;48.854;9.158;2023-04-01T15:51:52;11.20;98.30
14016;DHT22;7083;48.854;9.158;2023-04-01T15:54:27;11.20;97.80
14016;DHT22;7083;48.854;9.158;2023-04-01T15:57:11;12.20;98.80
14016;DHT22;7083;48.854;9.158;2023-04-01T16:00:01;11.00;98.90
14016;DHT22;7083;48.854;9.158;2023-04-01T16:02:31;11.10;97.80
14016;DHT22;7083;48.854;9.158;2023-04-01T16:05:06;11.00;97.60
14016;DHT22;7083;48.854;9.158;2023-04-01T16:07:55;11.00;97.70
14016;DHT22;7083;48.854;9.158;2023-04-01T16:10:35;11.00;96.90
14016;DHT22;7083;48.854;9.158;2023-04-01T16:13:20;10.90;96.80
14016;DHT22;7083;48.854;9.158;2023-04-01T16:15:57;10.90;96.60
14016;DHT22;7083;48.854;9.158;2023-04-01T16:18:42;10.80;96.60
14016;DHT22;7083;48.854;9.158;2023-04-01T16:21:24;10.80;97.20
14016;DHT22;7083;48.854;9.158;2023-04-01T16:23:56;10.80;97.00
14016;DHT22;7083;48.854;9.158;2023-04-01T16:26:27;10.70;97.00
14016;DHT22;7083;48.854;9.158;2023-04-01T16:29:03;10.70;97.20
14016;DHT22;7083;48.854;9.158;2023-04-01T16:31:38;10.70;97.10
14016;DHT22;7083;48.854;9.158;2023-04-01T16:34:16;10.70;96.50
14016;DHT22;7083;48.854;9.158;2023-04-01T16:36:47;10.70;96.70
14016;DHT22;7083;48.854;9.158;2023-04-01T16:39:27;10.60;96.70
14016;DHT22;7083;48.854;9.158;2023-04-01T16:42:11;10.70;96.90
14016;DHT22;7083;48.854;9.158;2023-04-01T16:44:48;10.60;97.10
14016;DHT22;7083;48.854;9.158;2023-04-01T16:47:19;10.60;97.30
14016;DHT22;7083;48.854;9.158;2023-04-01T16:49:51;10.50;97.30
14016;DHT22;7083;48.854;9.158;2023-04-01T16:52:40;10.50;97.60
14016;DHT22;7083;48.854;9.158;2023-04-01T16:55:15;10.50;97.80
14016;DHT22;7083;48.854;9.158;2023-04-01T16:57:48;10.50;98.00
14016;DHT22;7083;48.854;9.158;2023-04-01T17:00:22;10.50;98.30
14016;DHT22;7083;48.854;9.158;2023-04-01T17:02:57;10.40;98.70
14016;DHT22;7083;48.854;9.158;2023-04-01T17:05:39;10.40;98.50
14016;DHT22;7083;48.854;9.158;2023-04-01T17:08:17;10.40;98.30
14016;DHT22;7083;48.854;9.158;2023-04-01T17:10:52;10.40;98.40
14016;DHT22;7083;48.854;9.158;2023-04-01T17:13:43;10.30;98.60
14016;DHT22;7083;48.854;9.158;2023-04-01T17:16:28;10.30;98.80
14016;DHT22;7083;48.854;9.158;2023-04-01T17:19:05;10.30;99.00
14016;DHT22;7083;48.854;9.158;2023-04-01T17:21:47;10.20;99.20
14016;DHT22;7083;48.854;9.158;2023-04-01T17:24:27;10.20;99.60
14016;DHT22;7083;48.854;9.158;2023-04-01T17:27:06;10.20;99.90
14016;DHT22;7083;48.854;9.158;2023-04-01T17:30:11;10.20;99.90
14016;DHT22;7083;48.854;9.158;2023-04-01T17:32:50;10.20;99.90
14016;DHT22;7083;48.854;9.158;2023-04-01T17:35:26;10.20;99.90
14016;DHT22;7083;48.854;9.158;2023-04-01T17:38:07;10.30;99.90
14016;DHT22;7083;48.854;9.158;2023-04-01T17:40:44;10.20;99.90
14016;DHT22;7083;48.854;9.158;2023-04-01T17:43:22;10.30;99.90
14016;DHT22;7083;48.854;9.158;2023-04-01T17:45:54;10.30;99.90
14016;DHT22;7083;48.854;9.158;2023-04-01T17:48:29;10.30;99.90
14016;DHT22;7083;48.854;9.158;2023-04-01T17:51:09;10.30;99.90
14016;DHT22;7083;48.854;9.158;2023-04-01T17:53:44;10.30;99.90
14016;DHT22;7083;48.854;9.158;2023-04-01T17:56:21;10.30;99.90
14016;DHT22;7083;48.854;9.158;2023-04-01T17:58:59;10.30;99.90
14016;DHT22;7083;48.854;9.158;2023-04-01T18:01:40;10.30;99.90
14016;DHT22;7083;48.854;9.158;2023-04-01T18:07:22;10.00;99.90
14016;DHT22;7083;48.854;9.158;2023-04-01T18:10:01;9.80;99.90
14016;DHT22;7083;48.854;9.158;2023-04-01T18:12:40;9.70;99.90
14016;DHT22;7083;48.854;9.158;2023-04-01T18:15:19;9.50;99.90
14016;DHT22;7083;48.854;9.158;2023-04-01T18:18:02;9.40;99.90
14016;DHT22;7083;48.854;9.158;2023-04-01T18:20:42;9.30;99.90
14016;DHT22;7083;48.854;9.158;2023-04-01T18:23:19;9.30;99.90